Terminal Aerodrome Forecast
Issued by NWS Wakefield, VA

Home | Current Version | Previous Version | Text Only | Print | Product List | Glossary On
Versions: 1 2 3 4 5 6 7 8 9 10 11 12
000
FTUS41 KAKQ 281120
TAFSBY
TAF
KSBY 281120Z 2812/2912 VRB06KT P6SM SKC
     FM290400 16004KT 3SM BR SCT004
     FM290600 14003KT 1SM BR BKN004 BKN015 OVC100=

USA.gov is the U.S. government's official web portal to all federal, state and local government web resources and services.